sensor_id;sensor_type;location;lat;lon;timestamp;P1;durP1;ratioP1;P2;durP2;ratioP2
37445;SDS011;23307;51.136;14.942;2022-08-21T00:02:22;14.38;;;12.98;;
37445;SDS011;23307;51.136;14.942;2022-08-21T00:04:50;15.40;;;13.80;;
37445;SDS011;23307;51.136;14.942;2022-08-21T00:07:16;15.48;;;13.88;;
37445;SDS011;23307;51.136;14.942;2022-08-21T00:09:46;15.32;;;13.68;;
37445;SDS011;23307;51.136;14.942;2022-08-21T00:12:12;15.68;;;13.88;;
37445;SDS011;23307;51.136;14.942;2022-08-21T00:14:38;16.42;;;14.77;;
37445;SDS011;23307;51.136;14.942;2022-08-21T00:17:04;15.85;;;14.10;;
37445;SDS011;23307;51.136;14.942;2022-08-21T00:19:30;15.43;;;13.82;;
37445;SDS011;23307;51.136;14.942;2022-08-21T00:21:56;15.75;;;14.15;;
37445;SDS011;23307;51.136;14.942;2022-08-21T00:24:22;15.23;;;13.63;;
37445;SDS011;23307;51.136;14.942;2022-08-21T00:26:49;17.15;;;14.45;;
37445;SDS011;23307;51.136;14.942;2022-08-21T00:29:15;15.80;;;14.05;;
37445;SDS011;23307;51.136;14.942;2022-08-21T00:31:41;14.60;;;13.10;;
37445;SDS011;23307;51.136;14.942;2022-08-21T00:34:08;15.52;;;13.93;;
37445;SDS011;23307;51.136;14.942;2022-08-21T00:36:35;15.90;;;14.20;;
37445;SDS011;23307;51.136;14.942;2022-08-21T00:39:02;15.23;;;13.60;;
37445;SDS011;23307;51.136;14.942;2022-08-21T00:41:29;16.05;;;13.98;;
37445;SDS011;23307;51.136;14.942;2022-08-21T00:43:56;16.73;;;14.95;;
37445;SDS011;23307;51.136;14.942;2022-08-21T00:46:22;18.23;;;15.25;;
37445;SDS011;23307;51.136;14.942;2022-08-21T00:48:48;16.92;;;15.13;;
37445;SDS011;23307;51.136;14.942;2022-08-21T00:51:22;16.83;;;15.07;;
37445;SDS011;23307;51.136;14.942;2022-08-21T00:53:53;18.50;;;16.55;;
37445;SDS011;23307;51.136;14.942;2022-08-21T00:56:22;20.83;;;16.92;;
37445;SDS011;23307;51.136;14.942;2022-08-21T00:58:48;18.45;;;16.45;;
37445;SDS011;23307;51.136;14.942;2022-08-21T01:01:15;19.45;;;17.30;;
37445;SDS011;23307;51.136;14.942;2022-08-21T01:03:40;18.92;;;16.92;;
37445;SDS011;23307;51.136;14.942;2022-08-21T01:06:06;18.83;;;16.83;;
37445;SDS011;23307;51.136;14.942;2022-08-21T01:08:32;19.20;;;17.20;;
37445;SDS011;23307;51.136;14.942;2022-08-21T01:10:58;19.63;;;17.38;;
37445;SDS011;23307;51.136;14.942;2022-08-21T01:13:26;20.15;;;17.90;;
37445;SDS011;23307;51.136;14.942;2022-08-21T01:15:54;21.05;;;18.33;;
37445;SDS011;23307;51.136;14.942;2022-08-21T01:18:24;22.85;;;19.15;;
37445;SDS011;23307;51.136;14.942;2022-08-21T01:21:10;20.65;;;17.80;;
37445;SDS011;23307;51.136;14.942;2022-08-21T01:23:39;24.35;;;20.13;;
37445;SDS011;23307;51.136;14.942;2022-08-21T01:26:07;26.13;;;19.48;;
37445;SDS011;23307;51.136;14.942;2022-08-21T01:28:34;23.38;;;19.02;;
37445;SDS011;23307;51.136;14.942;2022-08-21T01:31:05;23.85;;;19.75;;
37445;SDS011;23307;51.136;14.942;2022-08-21T01:33:33;23.55;;;19.65;;
37445;SDS011;23307;51.136;14.942;2022-08-21T01:35:59;22.92;;;19.23;;
37445;SDS011;23307;51.136;14.942;2022-08-21T01:38:24;20.17;;;17.60;;
37445;SDS011;23307;51.136;14.942;2022-08-21T01:40:50;23.08;;;19.25;;
37445;SDS011;23307;51.136;14.942;2022-08-21T01:43:16;23.88;;;20.35;;
37445;SDS011;23307;51.136;14.942;2022-08-21T01:45:41;22.73;;;19.05;;
37445;SDS011;23307;51.136;14.942;2022-08-21T01:48:07;24.35;;;19.90;;
37445;SDS011;23307;51.136;14.942;2022-08-21T01:50:32;22.05;;;19.38;;
37445;SDS011;23307;51.136;14.942;2022-08-21T01:52:58;24.30;;;19.67;;
37445;SDS011;23307;51.136;14.942;2022-08-21T01:55:23;23.02;;;19.33;;
37445;SDS011;23307;51.136;14.942;2022-08-21T01:57:49;22.40;;;19.40;;
37445;SDS011;23307;51.136;14.942;2022-08-21T02:00:16;22.80;;;19.42;;
37445;SDS011;23307;51.136;14.942;2022-08-21T02:02:43;23.17;;;19.35;;
37445;SDS011;23307;51.136;14.942;2022-08-21T02:05:10;25.17;;;18.85;;
37445;SDS011;23307;51.136;14.942;2022-08-21T02:07:37;20.35;;;18.15;;
37445;SDS011;23307;51.136;14.942;2022-08-21T02:10:08;21.25;;;18.45;;
37445;SDS011;23307;51.136;14.942;2022-08-21T02:12:36;23.02;;;18.02;;
37445;SDS011;23307;51.136;14.942;2022-08-21T02:15:02;21.33;;;19.05;;
37445;SDS011;23307;51.136;14.942;2022-08-21T02:17:36;21.60;;;16.90;;
37445;SDS011;23307;51.136;14.942;2022-08-21T02:20:15;15.88;;;13.38;;
37445;SDS011;23307;51.136;14.942;2022-08-21T02:23:01;19.65;;;14.85;;
37445;SDS011;23307;51.136;14.942;2022-08-21T02:25:28;14.82;;;13.02;;
37445;SDS011;23307;51.136;14.942;2022-08-21T02:27:55;16.52;;;14.00;;
37445;SDS011;23307;51.136;14.942;2022-08-21T02:30:23;16.58;;;14.85;;
37445;SDS011;23307;51.136;14.942;2022-08-21T02:32:54;18.73;;;15.38;;
37445;SDS011;23307;51.136;14.942;2022-08-21T02:35:20;17.10;;;14.20;;
37445;SDS011;23307;51.136;14.942;2022-08-21T02:37:51;17.08;;;15.27;;
37445;SDS011;23307;51.136;14.942;2022-08-21T02:40:27;16.63;;;14.82;;
37445;SDS011;23307;51.136;14.942;2022-08-21T02:42:55;16.88;;;14.50;;
37445;SDS011;23307;51.136;14.942;2022-08-21T02:45:21;19.13;;;15.30;;
37445;SDS011;23307;51.136;14.942;2022-08-21T02:47:48;15.60;;;13.35;;
37445;SDS011;23307;51.136;14.942;2022-08-21T02:50:17;19.45;;;16.30;;
37445;SDS011;23307;51.136;14.942;2022-08-21T02:52:45;17.38;;;15.55;;
37445;SDS011;23307;51.136;14.942;2022-08-21T02:55:11;18.10;;;15.98;;
37445;SDS011;23307;51.136;14.942;2022-08-21T02:57:36;16.33;;;14.13;;
37445;SDS011;23307;51.136;14.942;2022-08-21T03:00:03;13.68;;;12.27;;
37445;SDS011;23307;51.136;14.942;2022-08-21T03:02:30;16.05;;;13.60;;
37445;SDS011;23307;51.136;14.942;2022-08-21T03:04:56;15.02;;;12.75;;
37445;SDS011;23307;51.136;14.942;2022-08-21T03:07:21;12.73;;;11.45;;
37445;SDS011;23307;51.136;14.942;2022-08-21T03:09:47;15.25;;;11.30;;
37445;SDS011;23307;51.136;14.942;2022-08-21T03:12:12;13.15;;;11.52;;
37445;SDS011;23307;51.136;14.942;2022-08-21T03:14:38;12.65;;;10.27;;
37445;SDS011;23307;51.136;14.942;2022-08-21T03:17:04;11.43;;;10.27;;
37445;SDS011;23307;51.136;14.942;2022-08-21T03:19:29;11.02;;;8.93;;
37445;SDS011;23307;51.136;14.942;2022-08-21T03:21:55;10.20;;;8.95;;
37445;SDS011;23307;51.136;14.942;2022-08-21T03:24:20;10.40;;;9.30;;
37445;SDS011;23307;51.136;14.942;2022-08-21T03:26:46;11.68;;;10.48;;
37445;SDS011;23307;51.136;14.942;2022-08-21T03:29:12;11.02;;;9.90;;
37445;SDS011;23307;51.136;14.942;2022-08-21T03:31:37;9.63;;;8.70;;
37445;SDS011;23307;51.136;14.942;2022-08-21T03:34:03;8.63;;;7.82;;
37445;SDS011;23307;51.136;14.942;2022-08-21T03:36:29;10.90;;;9.13;;
37445;SDS011;23307;51.136;14.942;2022-08-21T03:38:54;9.85;;;8.55;;
37445;SDS011;23307;51.136;14.942;2022-08-21T03:41:21;8.73;;;7.82;;
37445;SDS011;23307;51.136;14.942;2022-08-21T03:43:46;9.85;;;8.20;;
37445;SDS011;23307;51.136;14.942;2022-08-21T03:46:12;9.98;;;8.38;;
37445;SDS011;23307;51.136;14.942;2022-08-21T03:48:39;11.20;;;8.38;;
37445;SDS011;23307;51.136;14.942;2022-08-21T03:51:05;12.07;;;7.95;;
37445;SDS011;23307;51.136;14.942;2022-08-21T03:53:31;8.55;;;7.63;;
37445;SDS011;23307;51.136;14.942;2022-08-21T03:55:57;11.73;;;7.70;;
37445;SDS011;23307;51.136;14.942;2022-08-21T03:58:24;12.35;;;8.52;;
37445;SDS011;23307;51.136;14.942;2022-08-21T04:00:51;9.18;;;7.68;;
37445;SDS011;23307;51.136;14.942;2022-08-21T04:03:20;8.38;;;7.47;;
37445;SDS011;23307;51.136;14.942;2022-08-21T04:05:46;9.75;;;8.65;;
37445;SDS011;23307;51.136;14.942;2022-08-21T04:08:13;9.93;;;7.93;;
37445;SDS011;23307;51.136;14.942;2022-08-21T04:10:42;10.02;;;8.15;;
37445;SDS011;23307;51.136;14.942;2022-08-21T04:13:08;12.77;;;8.10;;
37445;SDS011;23307;51.136;14.942;2022-08-21T04:15:34;8.75;;;7.80;;
37445;SDS011;23307;51.136;14.942;2022-08-21T04:18:00;11.25;;;8.02;;
37445;SDS011;23307;51.136;14.942;2022-08-21T04:20:26;9.65;;;8.45;;
37445;SDS011;23307;51.136;14.942;2022-08-21T04:22:52;9.95;;;7.95;;
37445;SDS011;23307;51.136;14.942;2022-08-21T04:25:18;9.73;;;8.82;;
37445;SDS011;23307;51.136;14.942;2022-08-21T04:27:45;10.43;;;8.50;;
37445;SDS011;23307;51.136;14.942;2022-08-21T04:30:12;12.70;;;8.82;;
37445;SDS011;23307;51.136;14.942;2022-08-21T04:32:41;10.25;;;8.10;;
37445;SDS011;23307;51.136;14.942;2022-08-21T04:35:09;10.15;;;8.93;;
37445;SDS011;23307;51.136;14.942;2022-08-21T04:37:35;11.30;;;9.05;;
37445;SDS011;23307;51.136;14.942;2022-08-21T04:40:01;11.30;;;9.15;;
37445;SDS011;23307;51.136;14.942;2022-08-21T04:42:27;10.55;;;9.40;;
37445;SDS011;23307;51.136;14.942;2022-08-21T04:44:53;10.90;;;9.52;;
37445;SDS011;23307;51.136;14.942;2022-08-21T04:47:20;11.32;;;9.98;;
37445;SDS011;23307;51.136;14.942;2022-08-21T04:49:46;12.75;;;10.63;;
37445;SDS011;23307;51.136;14.942;2022-08-21T04:52:13;12.30;;;10.30;;
37445;SDS011;23307;51.136;14.942;2022-08-21T04:54:42;13.25;;;9.95;;
37445;SDS011;23307;51.136;14.942;2022-08-21T04:57:10;14.43;;;10.60;;
37445;SDS011;23307;51.136;14.942;2022-08-21T04:59:37;12.85;;;10.68;;
37445;SDS011;23307;51.136;14.942;2022-08-21T05:02:07;11.65;;;9.85;;
37445;SDS011;23307;51.136;14.942;2022-08-21T05:04:36;12.57;;;10.63;;
37445;SDS011;23307;51.136;14.942;2022-08-21T05:07:10;12.30;;;10.40;;
37445;SDS011;23307;51.136;14.942;2022-08-21T05:09:41;11.68;;;10.38;;
37445;SDS011;23307;51.136;14.942;2022-08-21T05:12:07;11.75;;;10.45;;
37445;SDS011;23307;51.136;14.942;2022-08-21T05:14:32;12.80;;;11.07;;
37445;SDS011;23307;51.136;14.942;2022-08-21T05:16:58;12.82;;;10.75;;
37445;SDS011;23307;51.136;14.942;2022-08-21T05:19:24;13.77;;;10.52;;
37445;SDS011;23307;51.136;14.942;2022-08-21T05:21:50;13.45;;;10.60;;
37445;SDS011;23307;51.136;14.942;2022-08-21T05:24:16;12.75;;;10.48;;
37445;SDS011;23307;51.136;14.942;2022-08-21T05:26:42;13.20;;;10.73;;
37445;SDS011;23307;51.136;14.942;2022-08-21T05:29:09;11.65;;;10.30;;
37445;SDS011;23307;51.136;14.942;2022-08-21T05:31:35;14.25;;;10.45;;
37445;SDS011;23307;51.136;14.942;2022-08-21T05:34:01;14.07;;;10.43;;
37445;SDS011;23307;51.136;14.942;2022-08-21T05:36:27;11.27;;;10.15;;
37445;SDS011;23307;51.136;14.942;2022-08-21T05:38:53;12.07;;;10.63;;
37445;SDS011;23307;51.136;14.942;2022-08-21T05:41:18;14.73;;;11.40;;
37445;SDS011;23307;51.136;14.942;2022-08-21T05:43:44;12.27;;;10.65;;
37445;SDS011;23307;51.136;14.942;2022-08-21T05:46:09;10.90;;;9.77;;
37445;SDS011;23307;51.136;14.942;2022-08-21T05:48:35;12.55;;;10.90;;
37445;SDS011;23307;51.136;14.942;2022-08-21T05:51:09;14.95;;;11.52;;
37445;SDS011;23307;51.136;14.942;2022-08-21T05:53:37;11.85;;;10.65;;
37445;SDS011;23307;51.136;14.942;2022-08-21T05:56:03;11.68;;;10.52;;
37445;SDS011;23307;51.136;14.942;2022-08-21T05:58:30;13.95;;;11.60;;
37445;SDS011;23307;51.136;14.942;2022-08-21T06:00:57;12.93;;;10.80;;
37445;SDS011;23307;51.136;14.942;2022-08-21T06:03:25;13.73;;;10.95;;
37445;SDS011;23307;51.136;14.942;2022-08-21T06:05:53;11.98;;;10.68;;
37445;SDS011;23307;51.136;14.942;2022-08-21T06:08:20;12.77;;;11.45;;
37445;SDS011;23307;51.136;14.942;2022-08-21T06:10:47;13.25;;;11.85;;
37445;SDS011;23307;51.136;14.942;2022-08-21T06:13:14;14.80;;;12.02;;
37445;SDS011;23307;51.136;14.942;2022-08-21T06:15:41;13.63;;;11.95;;
37445;SDS011;23307;51.136;14.942;2022-08-21T06:18:07;13.80;;;11.68;;
37445;SDS011;23307;51.136;14.942;2022-08-21T06:20:32;13.32;;;11.90;;
37445;SDS011;23307;51.136;14.942;2022-08-21T06:22:58;13.68;;;11.60;;
37445;SDS011;23307;51.136;14.942;2022-08-21T06:25:24;13.00;;;10.88;;
37445;SDS011;23307;51.136;14.942;2022-08-21T06:27:50;11.50;;;10.30;;
37445;SDS011;23307;51.136;14.942;2022-08-21T06:30:16;12.55;;;9.85;;
37445;SDS011;23307;51.136;14.942;2022-08-21T06:32:42;13.07;;;8.77;;
37445;SDS011;23307;51.136;14.942;2022-08-21T06:35:08;11.05;;;9.05;;
37445;SDS011;23307;51.136;14.942;2022-08-21T06:37:34;9.38;;;8.38;;
37445;SDS011;23307;51.136;14.942;2022-08-21T06:40:00;10.52;;;8.05;;
37445;SDS011;23307;51.136;14.942;2022-08-21T06:42:27;11.07;;;7.50;;
37445;SDS011;23307;51.136;14.942;2022-08-21T06:44:53;8.40;;;7.10;;
37445;SDS011;23307;51.136;14.942;2022-08-21T06:47:19;10.63;;;7.18;;
37445;SDS011;23307;51.136;14.942;2022-08-21T06:49:44;9.07;;;6.82;;
37445;SDS011;23307;51.136;14.942;2022-08-21T06:52:11;8.65;;;7.10;;
37445;SDS011;23307;51.136;14.942;2022-08-21T06:54:38;9.75;;;7.18;;
37445;SDS011;23307;51.136;14.942;2022-08-21T06:57:04;9.32;;;6.93;;
37445;SDS011;23307;51.136;14.942;2022-08-21T06:59:29;10.00;;;6.95;;
37445;SDS011;23307;51.136;14.942;2022-08-21T07:01:56;10.57;;;7.13;;
37445;SDS011;23307;51.136;14.942;2022-08-21T07:04:22;11.35;;;6.75;;
37445;SDS011;23307;51.136;14.942;2022-08-21T07:06:48;8.63;;;6.63;;
37445;SDS011;23307;51.136;14.942;2022-08-21T07:09:14;14.00;;;7.38;;
37445;SDS011;23307;51.136;14.942;2022-08-21T07:11:39;11.10;;;7.13;;
37445;SDS011;23307;51.136;14.942;2022-08-21T07:14:05;8.70;;;6.57;;
37445;SDS011;23307;51.136;14.942;2022-08-21T07:16:31;9.68;;;7.40;;
37445;SDS011;23307;51.136;14.942;2022-08-21T07:18:56;9.40;;;7.72;;
37445;SDS011;23307;51.136;14.942;2022-08-21T07:21:22;8.07;;;7.32;;
37445;SDS011;23307;51.136;14.942;2022-08-21T07:23:49;7.82;;;6.93;;
37445;SDS011;23307;51.136;14.942;2022-08-21T07:26:17;9.40;;;7.22;;
37445;SDS011;23307;51.136;14.942;2022-08-21T07:28:47;10.10;;;7.88;;
37445;SDS011;23307;51.136;14.942;2022-08-21T07:31:14;10.48;;;8.05;;
37445;SDS011;23307;51.136;14.942;2022-08-21T07:33:42;9.27;;;8.23;;
37445;SDS011;23307;51.136;14.942;2022-08-21T07:36:09;9.20;;;8.25;;
37445;SDS011;23307;51.136;14.942;2022-08-21T07:38:35;10.35;;;8.48;;
37445;SDS011;23307;51.136;14.942;2022-08-21T07:41:01;11.55;;;8.43;;
37445;SDS011;23307;51.136;14.942;2022-08-21T07:43:30;10.60;;;8.23;;
37445;SDS011;23307;51.136;14.942;2022-08-21T07:45:56;12.45;;;8.50;;
37445;SDS011;23307;51.136;14.942;2022-08-21T07:48:22;14.30;;;7.97;;
37445;SDS011;23307;51.136;14.942;2022-08-21T07:50:48;9.77;;;8.10;;
37445;SDS011;23307;51.136;14.942;2022-08-21T07:53:15;11.88;;;8.27;;
37445;SDS011;23307;51.136;14.942;2022-08-21T07:55:41;9.38;;;7.18;;
37445;SDS011;23307;51.136;14.942;2022-08-21T07:58:07;8.43;;;6.55;;
37445;SDS011;23307;51.136;14.942;2022-08-21T08:00:32;10.13;;;7.15;;
37445;SDS011;23307;51.136;14.942;2022-08-21T08:02:58;8.43;;;6.78;;
37445;SDS011;23307;51.136;14.942;2022-08-21T08:05:26;9.07;;;6.38;;
37445;SDS011;23307;51.136;14.942;2022-08-21T08:07:52;7.55;;;6.38;;
37445;SDS011;23307;51.136;14.942;2022-08-21T08:10:19;6.47;;;5.88;;
37445;SDS011;23307;51.136;14.942;2022-08-21T08:12:46;7.43;;;5.97;;
37445;SDS011;23307;51.136;14.942;2022-08-21T08:15:14;8.07;;;5.43;;
37445;SDS011;23307;51.136;14.942;2022-08-21T08:17:44;8.13;;;5.80;;
37445;SDS011;23307;51.136;14.942;2022-08-21T08:20:10;9.55;;;6.25;;
37445;SDS011;23307;51.136;14.942;2022-08-21T08:22:37;7.50;;;5.70;;
37445;SDS011;23307;51.136;14.942;2022-08-21T08:25:04;7.55;;;5.88;;
37445;SDS011;23307;51.136;14.942;2022-08-21T08:27:31;6.72;;;5.55;;
37445;SDS011;23307;51.136;14.942;2022-08-21T08:29:57;7.15;;;5.65;;
37445;SDS011;23307;51.136;14.942;2022-08-21T08:32:23;7.32;;;5.95;;
37445;SDS011;23307;51.136;14.942;2022-08-21T08:34:49;8.70;;;5.80;;
37445;SDS011;23307;51.136;14.942;2022-08-21T08:37:16;8.93;;;6.63;;
37445;SDS011;23307;51.136;14.942;2022-08-21T08:39:44;6.80;;;6.10;;
37445;SDS011;23307;51.136;14.942;2022-08-21T08:42:13;8.60;;;5.85;;
37445;SDS011;23307;51.136;14.942;2022-08-21T08:44:52;7.35;;;5.82;;
37445;SDS011;23307;51.136;14.942;2022-08-21T08:47:24;8.05;;;6.05;;
37445;SDS011;23307;51.136;14.942;2022-08-21T08:49:54;7.43;;;5.88;;
37445;SDS011;23307;51.136;14.942;2022-08-21T08:52:29;7.40;;;5.35;;
37445;SDS011;23307;51.136;14.942;2022-08-21T08:55:08;8.00;;;5.78;;
37445;SDS011;23307;51.136;14.942;2022-08-21T08:57:42;7.95;;;6.10;;
37445;SDS011;23307;51.136;14.942;2022-08-21T09:00:12;8.18;;;5.88;;
37445;SDS011;23307;51.136;14.942;2022-08-21T09:02:41;11.60;;;7.22;;
37445;SDS011;23307;51.136;14.942;2022-08-21T09:05:09;7.07;;;6.07;;
37445;SDS011;23307;51.136;14.942;2022-08-21T09:07:57;9.15;;;6.00;;
37445;SDS011;23307;51.136;14.942;2022-08-21T09:10:34;9.27;;;6.20;;
37445;SDS011;23307;51.136;14.942;2022-08-21T09:13:13;10.60;;;6.85;;
37445;SDS011;23307;51.136;14.942;2022-08-21T09:18:26;8.88;;;7.47;;
37445;SDS011;23307;51.136;14.942;2022-08-21T09:21:20;9.45;;;8.43;;
37445;SDS011;23307;51.136;14.942;2022-08-21T09:29:30;12.88;;;8.10;;
37445;SDS011;23307;51.136;14.942;2022-08-21T09:31:59;7.60;;;6.90;;
37445;SDS011;23307;51.136;14.942;2022-08-21T09:34:26;8.52;;;7.03;;
37445;SDS011;23307;51.136;14.942;2022-08-21T09:36:54;9.45;;;6.82;;
37445;SDS011;23307;51.136;14.942;2022-08-21T09:39:24;10.57;;;6.82;;
37445;SDS011;23307;51.136;14.942;2022-08-21T09:41:59;10.88;;;6.30;;
37445;SDS011;23307;51.136;14.942;2022-08-21T09:44:27;8.20;;;5.53;;
37445;SDS011;23307;51.136;14.942;2022-08-21T09:46:54;10.07;;;5.90;;
37445;SDS011;23307;51.136;14.942;2022-08-21T09:49:28;8.98;;;5.68;;
37445;SDS011;23307;51.136;14.942;2022-08-21T09:51:55;8.90;;;6.10;;
37445;SDS011;23307;51.136;14.942;2022-08-21T09:54:24;7.22;;;4.93;;
37445;SDS011;23307;51.136;14.942;2022-08-21T09:56:58;6.00;;;4.60;;
37445;SDS011;23307;51.136;14.942;2022-08-21T09:59:45;6.95;;;5.45;;
37445;SDS011;23307;51.136;14.942;2022-08-21T10:02:31;8.70;;;6.30;;
37445;SDS011;23307;51.136;14.942;2022-08-21T10:05:06;8.27;;;5.43;;
37445;SDS011;23307;51.136;14.942;2022-08-21T10:07:39;8.10;;;5.07;;
37445;SDS011;23307;51.136;14.942;2022-08-21T10:10:13;6.75;;;4.32;;
37445;SDS011;23307;51.136;14.942;2022-08-21T10:12:42;5.38;;;4.30;;
37445;SDS011;23307;51.136;14.942;2022-08-21T10:15:20;5.10;;;4.60;;
37445;SDS011;23307;51.136;14.942;2022-08-21T10:20:56;7.05;;;5.50;;
37445;SDS011;23307;51.136;14.942;2022-08-21T10:24:02;6.60;;;4.70;;
37445;SDS011;23307;51.136;14.942;2022-08-21T10:45:52;6.28;;;3.85;;
37445;SDS011;23307;51.136;14.942;2022-08-21T10:48:37;8.20;;;4.43;;
37445;SDS011;23307;51.136;14.942;2022-08-21T10:51:12;6.78;;;4.45;;
37445;SDS011;23307;51.136;14.942;2022-08-21T10:56:25;6.95;;;3.75;;
37445;SDS011;23307;51.136;14.942;2022-08-21T10:58:59;6.32;;;4.10;;
37445;SDS011;23307;51.136;14.942;2022-08-21T11:01:32;5.10;;;4.13;;
37445;SDS011;23307;51.136;14.942;2022-08-21T11:07:06;4.45;;;3.20;;
37445;SDS011;23307;51.136;14.942;2022-08-21T11:09:40;3.45;;;3.03;;
37445;SDS011;23307;51.136;14.942;2022-08-21T11:12:34;4.85;;;3.30;;
37445;SDS011;23307;51.136;14.942;2022-08-21T11:15:04;5.25;;;2.80;;
37445;SDS011;23307;51.136;14.942;2022-08-21T11:17:54;4.50;;;2.78;;
37445;SDS011;23307;51.136;14.942;2022-08-21T11:20:30;5.70;;;3.30;;
37445;SDS011;23307;51.136;14.942;2022-08-21T11:23:18;4.75;;;2.90;;
37445;SDS011;23307;51.136;14.942;2022-08-21T11:26:09;6.10;;;3.00;;
37445;SDS011;23307;51.136;14.942;2022-08-21T11:28:51;5.30;;;3.00;;
37445;SDS011;23307;51.136;14.942;2022-08-21T11:34:12;4.28;;;2.85;;
37445;SDS011;23307;51.136;14.942;2022-08-21T11:36:49;4.82;;;2.60;;
37445;SDS011;23307;51.136;14.942;2022-08-21T11:39:31;6.15;;;2.45;;
37445;SDS011;23307;51.136;14.942;2022-08-21T11:42:19;4.10;;;2.30;;
37445;SDS011;23307;51.136;14.942;2022-08-21T11:48:16;8.00;;;2.65;;
37445;SDS011;23307;51.136;14.942;2022-08-21T11:50:57;5.38;;;2.50;;
37445;SDS011;23307;51.136;14.942;2022-08-21T11:53:32;5.20;;;2.28;;
37445;SDS011;23307;51.136;14.942;2022-08-21T11:56:27;3.50;;;2.13;;
37445;SDS011;23307;51.136;14.942;2022-08-21T11:59:00;4.43;;;2.60;;
37445;SDS011;23307;51.136;14.942;2022-08-21T12:01:33;5.80;;;2.30;;
37445;SDS011;23307;51.136;14.942;2022-08-21T12:04:07;4.50;;;2.15;;
37445;SDS011;23307;51.136;14.942;2022-08-21T12:06:41;3.88;;;2.35;;
37445;SDS011;23307;51.136;14.942;2022-08-21T12:09:08;5.05;;;2.35;;
37445;SDS011;23307;51.136;14.942;2022-08-21T12:12:00;3.85;;;2.40;;
37445;SDS011;23307;51.136;14.942;2022-08-21T12:14:39;5.13;;;2.40;;
37445;SDS011;23307;51.136;14.942;2022-08-21T12:17:17;7.63;;;2.83;;
37445;SDS011;23307;51.136;14.942;2022-08-21T12:19:56;4.60;;;2.00;;
37445;SDS011;23307;51.136;14.942;2022-08-21T12:22:23;5.80;;;2.83;;
37445;SDS011;23307;51.136;14.942;2022-08-21T12:25:11;6.10;;;2.72;;
37445;SDS011;23307;51.136;14.942;2022-08-21T12:27:46;3.63;;;2.50;;
37445;SDS011;23307;51.136;14.942;2022-08-21T12:32:45;6.85;;;2.92;;
37445;SDS011;23307;51.136;14.942;2022-08-21T12:35:26;6.18;;;2.90;;
37445;SDS011;23307;51.136;14.942;2022-08-21T12:38:02;6.15;;;2.72;;
37445;SDS011;23307;51.136;14.942;2022-08-21T12:40:50;5.43;;;2.50;;
37445;SDS011;23307;51.136;14.942;2022-08-21T12:43:27;4.03;;;2.67;;
37445;SDS011;23307;51.136;14.942;2022-08-21T12:45:56;5.63;;;2.40;;
37445;SDS011;23307;51.136;14.942;2022-08-21T12:51:22;5.10;;;2.40;;
37445;SDS011;23307;51.136;14.942;2022-08-21T12:53:54;4.75;;;2.70;;
37445;SDS011;23307;51.136;14.942;2022-08-21T12:56:23;5.18;;;2.60;;
37445;SDS011;23307;51.136;14.942;2022-08-21T12:58:54;6.82;;;2.92;;
37445;SDS011;23307;51.136;14.942;2022-08-21T13:01:28;4.93;;;2.50;;
37445;SDS011;23307;51.136;14.942;2022-08-21T13:04:04;5.82;;;2.90;;
37445;SDS011;23307;51.136;14.942;2022-08-21T13:06:38;4.25;;;2.15;;
37445;SDS011;23307;51.136;14.942;2022-08-21T13:09:10;3.45;;;2.53;;
37445;SDS011;23307;51.136;14.942;2022-08-21T13:11:37;4.40;;;2.70;;
37445;SDS011;23307;51.136;14.942;2022-08-21T13:14:06;3.20;;;2.28;;
37445;SDS011;23307;51.136;14.942;2022-08-21T13:16:54;4.05;;;2.35;;
37445;SDS011;23307;51.136;14.942;2022-08-21T13:19:21;3.85;;;2.20;;
37445;SDS011;23307;51.136;14.942;2022-08-21T13:21:46;4.15;;;2.20;;
37445;SDS011;23307;51.136;14.942;2022-08-21T13:24:20;4.63;;;2.13;;
37445;SDS011;23307;51.136;14.942;2022-08-21T13:26:49;2.90;;;2.08;;
37445;SDS011;23307;51.136;14.942;2022-08-21T13:29:16;4.05;;;2.10;;
37445;SDS011;23307;51.136;14.942;2022-08-21T13:31:48;4.07;;;1.88;;
37445;SDS011;23307;51.136;14.942;2022-08-21T13:34:20;2.22;;;1.58;;
37445;SDS011;23307;51.136;14.942;2022-08-21T13:36:50;2.78;;;1.90;;
37445;SDS011;23307;51.136;14.942;2022-08-21T13:39:17;5.53;;;2.20;;
37445;SDS011;23307;51.136;14.942;2022-08-21T13:41:44;4.03;;;2.00;;
37445;SDS011;23307;51.136;14.942;2022-08-21T13:44:17;4.55;;;2.10;;
37445;SDS011;23307;51.136;14.942;2022-08-21T13:46:45;3.58;;;2.22;;
37445;SDS011;23307;51.136;14.942;2022-08-21T13:49:12;3.25;;;1.90;;
37445;SDS011;23307;51.136;14.942;2022-08-21T13:51:41;4.00;;;1.90;;
37445;SDS011;23307;51.136;14.942;2022-08-21T13:54:41;4.28;;;2.05;;
37445;SDS011;23307;51.136;14.942;2022-08-21T13:57:12;3.40;;;2.00;;
37445;SDS011;23307;51.136;14.942;2022-08-21T14:00:16;3.88;;;2.20;;
37445;SDS011;23307;51.136;14.942;2022-08-21T14:02:51;3.20;;;1.75;;
37445;SDS011;23307;51.136;14.942;2022-08-21T14:05:26;4.03;;;1.73;;
37445;SDS011;23307;51.136;14.942;2022-08-21T14:07:59;5.45;;;1.75;;
37445;SDS011;23307;51.136;14.942;2022-08-21T14:10:29;5.43;;;1.60;;
37445;SDS011;23307;51.136;14.942;2022-08-21T14:12:57;4.55;;;2.10;;
37445;SDS011;23307;51.136;14.942;2022-08-21T14:15:27;4.53;;;1.80;;
37445;SDS011;23307;51.136;14.942;2022-08-21T14:18:15;3.10;;;2.03;;
37445;SDS011;23307;51.136;14.942;2022-08-21T14:20:42;4.20;;;1.95;;
37445;SDS011;23307;51.136;14.942;2022-08-21T14:23:09;3.78;;;1.80;;
37445;SDS011;23307;51.136;14.942;2022-08-21T14:25:40;3.00;;;1.70;;
37445;SDS011;23307;51.136;14.942;2022-08-21T14:28:11;4.10;;;1.70;;
37445;SDS011;23307;51.136;14.942;2022-08-21T14:30:57;4.20;;;1.85;;
37445;SDS011;23307;51.136;14.942;2022-08-21T14:33:27;4.43;;;2.17;;
37445;SDS011;23307;51.136;14.942;2022-08-21T14:35:56;2.65;;;1.58;;
37445;SDS011;23307;51.136;14.942;2022-08-21T14:38:22;4.07;;;1.63;;
37445;SDS011;23307;51.136;14.942;2022-08-21T14:40:51;3.47;;;1.85;;
37445;SDS011;23307;51.136;14.942;2022-08-21T14:43:19;2.60;;;1.65;;
37445;SDS011;23307;51.136;14.942;2022-08-21T14:45:45;3.53;;;1.70;;
37445;SDS011;23307;51.136;14.942;2022-08-21T14:48:11;3.60;;;1.50;;
37445;SDS011;23307;51.136;14.942;2022-08-21T14:50:37;2.75;;;1.73;;
37445;SDS011;23307;51.136;14.942;2022-08-21T14:53:03;2.88;;;1.90;;
37445;SDS011;23307;51.136;14.942;2022-08-21T14:55:29;4.95;;;2.13;;
37445;SDS011;23307;51.136;14.942;2022-08-21T14:58:16;4.40;;;2.00;;
37445;SDS011;23307;51.136;14.942;2022-08-21T15:00:42;2.40;;;1.80;;
37445;SDS011;23307;51.136;14.942;2022-08-21T15:03:07;2.88;;;2.00;;
37445;SDS011;23307;51.136;14.942;2022-08-21T15:05:33;3.35;;;1.90;;
37445;SDS011;23307;51.136;14.942;2022-08-21T15:07:58;2.67;;;1.90;;
37445;SDS011;23307;51.136;14.942;2022-08-21T15:10:24;2.55;;;1.65;;
37445;SDS011;23307;51.136;14.942;2022-08-21T15:12:50;3.40;;;2.20;;
37445;SDS011;23307;51.136;14.942;2022-08-21T15:15:15;4.45;;;2.30;;
37445;SDS011;23307;51.136;14.942;2022-08-21T15:17:41;2.88;;;2.08;;
37445;SDS011;23307;51.136;14.942;2022-08-21T15:20:06;3.28;;;2.10;;
37445;SDS011;23307;51.136;14.942;2022-08-21T15:22:34;5.55;;;2.28;;
37445;SDS011;23307;51.136;14.942;2022-08-21T15:24:59;3.03;;;2.17;;
37445;SDS011;23307;51.136;14.942;2022-08-21T15:27:26;3.10;;;2.17;;